Time;durP1;ratioP1;P1;durP2;ratioP2;P2;SDS_P1;SDS_P2;PMS_P1;PMS_P2;Temp;Humidity;BMP_temperature;BMP_pressure;BME280_temperature;BME280_humidity;BME280_pressure;Samples;Min_cycle;Max_cycle;Signal;HPM_P1;HPM_P2
2023/01/23 00:02:06;;;;;;;;;;;;;;;;;;5012155;28;19979;-89
2023/01/23 00:04:53;;;;;;;;;;;;;;;;;;5018652;28;19964;-88
2023/01/23 00:07:20;;;;;;;;;;;;;;;;;;4997031;28;19921;-90
2023/01/23 00:09:48;;;;;;;;;;;;;;;;;;4992230;28;19924;-89
2023/01/23 00:12:24;;;;;;;;;;;;;;;;;;5023291;28;20397;-88
2023/01/23 00:17:45;;;;;;;;;;;;;;;;;;5021651;28;19916;-90
2023/01/23 00:20:11;;;;;;;;;;;;;;;;;;5022553;28;19960;-89
2023/01/23 00:22:37;;;;;;;;;;;;;;;;;;5017870;28;19956;-89
2023/01/23 00:25:03;;;;;;;;;;;;;;;;;;5002690;28;19963;-89
2023/01/23 00:27:29;;;;;;;;;;;;;;;;;;5007738;28;19921;-89
2023/01/23 00:29:59;;;;;;;;;;;;;;;;;;5021832;28;19920;-89
2023/01/23 00:32:30;;;;;;;;;;;;;;;;;;5003331;28;20420;-89
2023/01/23 00:34:59;;;;;;;;;;;;;;;;;;5005194;28;20003;-89
2023/01/23 00:37:30;;;;;;;;;;;;;;;;;;5001396;28;19970;-89
2023/01/23 00:39:59;;;;;;;;;;;;;;;;;;5019510;28;20218;-89
2023/01/23 00:42:28;;;;;;;;;;;;;;;;;;4995153;28;20452;-89
2023/01/23 00:44:54;;;;;;;;;;;;;;;;;;5016351;28;19924;-90
2023/01/23 00:47:20;;;;;;;;;;;;;;;;;;5091765;23;19927;-89
2023/01/23 00:49:46;;;;;;;;;;;;;;;;;;5019451;28;20694;-89
2023/01/23 00:52:15;;;;;;;;;;;;;;;;;;5032678;28;19926;-89
2023/01/23 00:54:59;;;;;;;;;;;;;;;;;;4989741;28;20471;-89
2023/01/23 00:57:27;;;;;;;;;;;;;;;;;;5046644;23;19935;-89
2023/01/23 00:59:53;;;;;;;;;;;;;;;;;;5002521;28;19928;-90
2023/01/23 01:02:22;;;;;;;;;;;;;;;;;;4988039;28;19925;-90
2023/01/23 01:04:48;;;;;;;;;;;;;;;;;;5015328;28;20423;-90
2023/01/23 01:07:23;;;;;;;;;;;;;;;;;;4996070;28;20023;-89
2023/01/23 01:09:51;;;;;;;;;;;;;;;;;;4996345;28;20222;-89
2023/01/23 01:12:18;;;;;;;;;;;;;;;;;;5010992;22;19960;-85
2023/01/23 01:14:44;;;;;;;;;;;;;;;;;;4976807;28;19925;-86
2023/01/23 01:17:12;;;;;;;;;;;;;;;;;;5014548;28;20624;-86
2023/01/23 01:19:41;;;;;;;;;;;;;;;;;;5014207;28;20081;-85
2023/01/23 01:22:10;;;;;;;;;;;;;;;;;;4983337;28;20265;-87
2023/01/23 01:24:39;;;;;;;;;;;;;;;;;;4997994;28;19971;-85
2023/01/23 01:27:05;;;;;;;;;;;;;;;;;;5003553;28;19917;-86
2023/01/23 01:29:31;;;;;;;;;;;;;;;;;;4982202;28;20445;-86
2023/01/23 01:31:57;;;;;;;;;;;;;;;;;;4980647;28;20660;-85
2023/01/23 01:34:23;;;;;;;;;;;;;;;;;;5003238;28;19924;-85
2023/01/23 01:36:50;;;;;;;;;;;;;;;;;;5002641;28;19979;-85
2023/01/23 01:39:22;;;;;;;;;;;;;;;;;;5018827;28;19921;-86
2023/01/23 01:41:51;;;;;;;;;;;;;;;;;;4981950;28;19916;-86
2023/01/23 01:44:17;;;;;;;;;;;;;;;;;;5001825;28;19917;-86
2023/01/23 01:46:44;;;;;;;;;;;;;;;;;;4989071;28;19940;-86
2023/01/23 01:49:10;;;;;;;;;;;;;;;;;;4990561;28;19917;-88
2023/01/23 01:51:39;;;;;;;;;;;;;;;;;;4986829;28;19925;-86
2023/01/23 01:54:08;;;;;;;;;;;;;;;;;;4995310;28;20300;-85
2023/01/23 01:56:40;;;;;;;;;;;;;;;;;;4993112;28;19929;-86
2023/01/23 01:59:21;;;;;;;;;;;;;;;;;;4978036;28;19917;-86
2023/01/23 02:01:53;;;;;;;;;;;;;;;;;;4989058;28;20390;-85
2023/01/23 02:04:31;;;;;;;;;;;;;;;;;;4969570;28;20280;-84
2023/01/23 02:07:17;;;;;;;;;;;;;;;;;;4956644;28;20398;-85
2023/01/23 02:09:43;;;;;;;;;;;;;;;;;;4999379;28;19921;-86
2023/01/23 02:12:09;;;;;;;;;;;;;;;;;;5007540;28;19936;-86
2023/01/23 02:14:38;;;;;;;;;;;;;;;;;;4999008;28;19925;-86
2023/01/23 02:17:04;;;;;;;;;;;;;;;;;;4987253;28;19921;-85
2023/01/23 02:19:41;;;;;;;;;;;;;;;;;;5002198;28;20832;-86
2023/01/23 02:22:15;;;;;;;;;;;;;;;;;;4974548;28;20335;-86
2023/01/23 02:27:36;;;;;;;;;;;;;;;;;;4979014;28;19917;-85
2023/01/23 02:30:09;;;;;;;;;;;;;;;;;;4994894;28;19917;-86
2023/01/23 02:32:51;;;;;;;;;;;;;;;;;;4993518;28;20375;-85
2023/01/23 02:35:23;;;;;;;;;;;;;;;;;;4998132;28;19925;-86
2023/01/23 02:37:49;;;;;;;;;;;;;;;;;;4982905;28;20445;-85
2023/01/23 02:40:20;;;;;;;;;;;;;;;;;;4980477;28;19948;-86
2023/01/23 02:45:45;;;;;;;;;;;;;;;;;;5001650;28;20226;-86
2023/01/23 02:48:11;;;;;;;;;;;;;;;;;;5015781;28;20523;-86
2023/01/23 02:50:51;;;;;;;;;;;;;;;;;;;;;
2023/01/23 02:53:24;;;;;;;;;;;;;;;;;;4999140;28;19921;-85
2023/01/23 02:56:01;;;;;;;;;;;;;;;;;;4994443;28;19921;-85
2023/01/23 03:01:37;;;;;;;;;;;;;;;;;;;;;
2023/01/23 03:07:01;;;;;;;;;;;;;;;;;;5001104;28;19917;-86
2023/01/23 03:09:30;;;;;;;;;;;;;;;;;;4993749;28;19963;-85
2023/01/23 03:12:06;;;;;;;;;;;;;;;;;;5075639;23;19962;-85
2023/01/23 03:14:41;;;;;;;;;;;;;;;;;;5039105;28;20375;-86
2023/01/23 03:17:14;;;;;;;;;;;;;;;;;;5057605;28;19916;-86
2023/01/23 03:19:56;;;;;;;;;;;;;;;;;;5078525;28;20335;-87
2023/01/23 03:24:56;;;;;;;;;;;;;;;;;;5042353;28;19936;-82
2023/01/23 03:27:22;;;;;;;;;;;;;;;;;;5018091;28;20380;-81
2023/01/23 03:32:33;;;;;;;;;;;;;;;;;;5033027;28;19925;-81
2023/01/23 03:34:59;;;;;;;;;;;;;;;;;;5005950;28;20327;-80
2023/01/23 03:37:25;;;;;;;;;;;;;;;;;;5014732;28;20399;-82
2023/01/23 03:42:35;;;;;;;;;;;;;;;;;;5006089;28;20007;-82
2023/01/23 03:45:01;;;;;;;;;;;;;;;;;;4991728;28;20004;-80
2023/01/23 03:47:27;;;;;;;;;;;;;;;;;;5016485;28;20012;-81
2023/01/23 03:49:53;;;;;;;;;;;;;;;;;;4987575;28;20429;-82
2023/01/23 03:52:19;;;;;;;;;;;;;;;;;;4984203;28;20662;-82
2023/01/23 03:54:45;;;;;;;;;;;;;;;;;;5005715;28;19932;-81
2023/01/23 03:57:11;;;;;;;;;;;;;;;;;;5021681;28;19924;-82
2023/01/23 03:59:37;;;;;;;;;;;;;;;;;;5002967;28;19925;-81
2023/01/23 04:02:03;;;;;;;;;;;;;;;;;;4991682;28;19935;-82
2023/01/23 04:04:29;;;;;;;;;;;;;;;;;;5013438;28;19921;-81
2023/01/23 04:06:55;;;;;;;;;;;;;;;;;;4997827;28;19970;-81
2023/01/23 04:09:26;;;;;;;;;;;;;;;;;;5000033;28;20064;-80
2023/01/23 04:11:52;;;;;;;;;;;;;;;;;;5011103;28;20365;-82
2023/01/23 04:14:18;;;;;;;;;;;;;;;;;;4967788;28;20012;-81
2023/01/23 04:16:44;;;;;;;;;;;;;;;;;;4991949;28;20023;-81
2023/01/23 04:19:10;;;;;;;;;;;;;;;;;;5009770;28;19972;-81
2023/01/23 04:21:35;;;;;;;;;;;;;;;;;;4980927;28;19964;-81
2023/01/23 04:24:01;;;;;;;;;;;;;;;;;;4996706;28;20533;-82
2023/01/23 04:26:27;;;;;;;;;;;;;;;;;;4995902;28;20268;-82
2023/01/23 04:28:53;;;;;;;;;;;;;;;;;;4996960;28;19917;-81
2023/01/23 04:31:19;;;;;;;;;;;;;;;;;;4993452;28;19928;-81
2023/01/23 04:33:45;;;;;;;;;;;;;;;;;;4993170;28;19921;-81
2023/01/23 04:36:11;;;;;;;;;;;;;;;;;;4999522;28;19925;-81
2023/01/23 04:38:37;;;;;;;;;;;;;;;;;;5014763;28;19921;-81
2023/01/23 04:41:03;;;;;;;;;;;;;;;;;;5016878;28;19925;-80
2023/01/23 04:43:29;;;;;;;;;;;;;;;;;;5011640;28;19921;-80
2023/01/23 04:45:55;;;;;;;;;;;;;;;;;;4993206;28;19917;-80
2023/01/23 04:48:21;;;;;;;;;;;;;;;;;;4994223;28;20023;-81
2023/01/23 04:50:47;;;;;;;;;;;;;;;;;;4989020;28;20059;-81
2023/01/23 04:53:13;;;;;;;;;;;;;;;;;;5002057;28;19921;-82
2023/01/23 04:55:39;;;;;;;;;;;;;;;;;;5023251;28;19921;-82
2023/01/23 04:58:05;;;;;;;;;;;;;;;;;;4992584;28;19924;-81
2023/01/23 05:00:31;;;;;;;;;;;;;;;;;;5000077;28;20039;-81
2023/01/23 05:02:57;;;;;;;;;;;;;;;;;;4992094;28;19917;-82
2023/01/23 05:05:23;;;;;;;;;;;;;;;;;;5012452;28;20393;-81
2023/01/23 05:07:49;;;;;;;;;;;;;;;;;;4997712;28;19980;-81
2023/01/23 05:10:15;;;;;;;;;;;;;;;;;;5005443;28;19928;-81
2023/01/23 05:12:41;;;;;;;;;;;;;;;;;;4986579;28;19929;-81
2023/01/23 05:15:07;;;;;;;;;;;;;;;;;;5009818;28;20013;-81
2023/01/23 05:17:33;;;;;;;;;;;;;;;;;;5009435;28;19939;-81
2023/01/23 05:19:58;;;;;;;;;;;;;;;;;;4996078;28;19948;-81
2023/01/23 05:22:24;;;;;;;;;;;;;;;;;;4975698;28;19941;-81
2023/01/23 05:24:50;;;;;;;;;;;;;;;;;;5005891;28;20880;-81
2023/01/23 05:27:16;;;;;;;;;;;;;;;;;;4989974;28;19932;-81
2023/01/23 05:29:42;;;;;;;;;;;;;;;;;;5010044;28;19917;-80
2023/01/23 05:32:08;;;;;;;;;;;;;;;;;;4971437;28;19924;-80
2023/01/23 05:34:34;;;;;;;;;;;;;;;;;;5015744;28;20035;-80
2023/01/23 05:37:00;;;;;;;;;;;;;;;;;;4983110;28;20272;-81
2023/01/23 05:39:26;;;;;;;;;;;;;;;;;;5012224;28;19918;-81
2023/01/23 05:41:52;;;;;;;;;;;;;;;;;;4996957;28;19917;-81
2023/01/23 05:44:18;;;;;;;;;;;;;;;;;;5000248;28;19917;-81
2023/01/23 05:46:44;;;;;;;;;;;;;;;;;;5012951;28;19920;-81
2023/01/23 05:49:10;;;;;;;;;;;;;;;;;;4987731;28;19921;-80
2023/01/23 05:51:36;;;;;;;;;;;;;;;;;;4998207;28;19917;-81
2023/01/23 05:54:02;;;;;;;;;;;;;;;;;;4981149;28;20381;-81
2023/01/23 05:56:27;;;;;;;;;;;;;;;;;;4990467;28;19935;-81
2023/01/23 05:58:53;;;;;;;;;;;;;;;;;;5016605;28;19963;-81
2023/01/23 06:01:19;;;;;;;;;;;;;;;;;;4971907;28;19933;-81
2023/01/23 06:03:45;;;;;;;;;;;;;;;;;;4999893;28;19943;-81
2023/01/23 06:06:11;;;;;;;;;;;;;;;;;;4986190;28;19952;-81
2023/01/23 06:08:37;;;;;;;;;;;;;;;;;;4976927;28;20403;-81
2023/01/23 06:11:03;;;;;;;;;;;;;;;;;;4975063;28;20362;-81
2023/01/23 06:13:29;;;;;;;;;;;;;;;;;;4970154;28;19925;-81
2023/01/23 06:15:55;;;;;;;;;;;;;;;;;;4993743;28;20272;-81
2023/01/23 06:18:21;;;;;;;;;;;;;;;;;;4977872;28;19932;-81
2023/01/23 06:20:47;;;;;;;;;;;;;;;;;;4992233;28;19935;-82
2023/01/23 06:23:13;;;;;;;;;;;;;;;;;;4998035;28;19925;-81
2023/01/23 06:25:39;;;;;;;;;;;;;;;;;;4993990;28;19965;-81
2023/01/23 06:28:05;;;;;;;;;;;;;;;;;;4976188;28;19932;-81
2023/01/23 06:30:31;;;;;;;;;;;;;;;;;;5015491;28;19920;-84
2023/01/23 06:32:57;;;;;;;;;;;;;;;;;;4992055;28;19925;-83
2023/01/23 06:35:23;;;;;;;;;;;;;;;;;;4995581;28;19918;-83
2023/01/23 06:37:48;;;;;;;;;;;;;;;;;;4970825;28;20175;-83
2023/01/23 06:40:14;;;;;;;;;;;;;;;;;;4970342;28;19925;-83
2023/01/23 06:42:40;;;;;;;;;;;;;;;;;;4975161;28;19972;-83
2023/01/23 06:45:06;;;;;;;;;;;;;;;;;;4985495;28;19925;-82
2023/01/23 06:47:32;;;;;;;;;;;;;;;;;;4986958;28;19924;-82
2023/01/23 06:49:58;;;;;;;;;;;;;;;;;;4985767;28;20086;-83
2023/01/23 06:52:24;;;;;;;;;;;;;;;;;;4994782;28;20449;-84
2023/01/23 06:54:50;;;;;;;;;;;;;;;;;;5004460;28;20476;-83
2023/01/23 06:57:16;;;;;;;;;;;;;;;;;;5001932;28;20128;-82
2023/01/23 06:59:42;;;;;;;;;;;;;;;;;;5002040;28;20410;-83
2023/01/23 07:02:08;;;;;;;;;;;;;;;;;;5029154;28;20369;-81
2023/01/23 07:04:34;;;;;;;;;;;;;;;;;;4992087;28;20598;-80
2023/01/23 07:07:00;;;;;;;;;;;;;;;;;;5003921;28;20693;-81
2023/01/23 07:09:25;;;;;;;;;;;;;;;;;;5022713;28;20319;-81
2023/01/23 07:11:51;;;;;;;;;;;;;;;;;;5005465;28;20012;-82
2023/01/23 07:14:17;;;;;;;;;;;;;;;;;;4998293;28;19996;-81
2023/01/23 07:16:43;;;;;;;;;;;;;;;;;;5008650;28;20469;-81
2023/01/23 07:19:09;;;;;;;;;;;;;;;;;;4999779;28;20016;-81
2023/01/23 07:21:35;;;;;;;;;;;;;;;;;;5015072;28;19927;-82
2023/01/23 07:24:01;;;;;;;;;;;;;;;;;;4987166;28;20017;-82
2023/01/23 07:26:27;;;;;;;;;;;;;;;;;;5010037;28;19924;-82
2023/01/23 07:28:53;;;;;;;;;;;;;;;;;;4995320;28;20214;-81
2023/01/23 07:31:22;;;;;;;;;;;;;;;;;;4993009;28;20287;-81
2023/01/23 07:33:48;;;;;;;;;;;;;;;;;;5001544;28;19927;-81
2023/01/23 07:36:14;;;;;;;;;;;;;;;;;;5008781;28;20032;-82
2023/01/23 07:38:40;;;;;;;;;;;;;;;;;;4988118;28;19925;-81
2023/01/23 07:41:06;;;;;;;;;;;;;;;;;;4981525;28;19921;-81
2023/01/23 07:43:32;;;;;;;;;;;;;;;;;;4999565;28;20302;-81
2023/01/23 07:45:57;;;;;;;;;;;;;;;;;;5016801;28;19917;-80
2023/01/23 07:48:23;;;;;;;;;;;;;;;;;;4988130;28;20256;-81
2023/01/23 07:50:49;;;;;;;;;;;;;;;;;;4994744;28;20047;-81
2023/01/23 07:53:15;;;;;;;;;;;;;;;;;;5006733;28;19920;-81
2023/01/23 07:55:41;;;;;;;;;;;;;;;;;;5002980;28;19925;-81
2023/01/23 07:58:07;;;;;;;;;;;;;;;;;;5026921;28;19917;-81
2023/01/23 08:00:33;;;;;;;;;;;;;;;;;;4991927;28;19939;-81
2023/01/23 08:02:59;;;;;;;;;;;;;;;;;;5015331;28;19956;-81
2023/01/23 08:05:28;;;;;;;;;;;;;;;;;;4992890;28;19920;-82
2023/01/23 08:07:54;;;;;;;;;;;;;;;;;;4984418;28;20299;-81
2023/01/23 08:10:20;;;;;;;;;;;;;;;;;;4999564;28;21047;-81
2023/01/23 08:12:46;;;;;;;;;;;;;;;;;;5020918;28;19929;-81
2023/01/23 08:15:12;;;;;;;;;;;;;;;;;;5023450;28;19932;-81
2023/01/23 08:17:38;;;;;;;;;;;;;;;;;;5000169;28;19947;-81
2023/01/23 08:20:04;;;;;;;;;;;;;;;;;;4984774;28;19920;-81
2023/01/23 08:22:30;;;;;;;;;;;;;;;;;;4982659;28;19948;-82
2023/01/23 08:24:56;;;;;;;;;;;;;;;;;;5000692;28;19921;-81
2023/01/23 08:27:21;;;;;;;;;;;;;;;;;;4986984;28;20060;-80
2023/01/23 08:29:47;;;;;;;;;;;;;;;;;;4983835;28;20070;-81
2023/01/23 08:32:13;;;;;;;;;;;;;;;;;;5031213;28;19972;-81
2023/01/23 08:34:39;;;;;;;;;;;;;;;;;;4991417;28;19932;-81
2023/01/23 08:37:05;;;;;;;;;;;;;;;;;;4990756;28;20006;-81
2023/01/23 08:39:31;;;;;;;;;;;;;;;;;;4987896;28;19928;-81
2023/01/23 08:41:57;;;;;;;;;;;;;;;;;;4998383;28;19921;-81
2023/01/23 08:44:23;;;;;;;;;;;;;;;;;;4992797;28;19924;-81
2023/01/23 08:46:49;;;;;;;;;;;;;;;;;;4992810;28;19930;-81
2023/01/23 08:49:18;;;;;;;;;;;;;;;;;;5008686;28;19967;-82
2023/01/23 08:51:44;;;;;;;;;;;;;;;;;;5011731;28;19921;-81
2023/01/23 08:54:10;;;;;;;;;;;;;;;;;;5006650;28;19995;-82
2023/01/23 08:56:36;;;;;;;;;;;;;;;;;;4977784;28;20118;-81
2023/01/23 08:59:02;;;;;;;;;;;;;;;;;;4983538;28;19929;-81
2023/01/23 09:01:28;;;;;;;;;;;;;;;;;;4986842;28;19917;-81
2023/01/23 09:03:54;;;;;;;;;;;;;;;;;;5007825;28;19963;-82
2023/01/23 09:06:22;;;;;;;;;;;;;;;;;;4989288;28;19932;-81
2023/01/23 09:08:48;;;;;;;;;;;;;;;;;;4997518;28;20359;-81
2023/01/23 09:11:14;;;;;;;;;;;;;;;;;;5013307;28;19929;-82
2023/01/23 09:13:40;;;;;;;;;;;;;;;;;;4987195;28;21287;-81
2023/01/23 09:16:09;;;;;;;;;;;;;;;;;;4987351;28;19921;-82
2023/01/23 09:18:35;;;;;;;;;;;;;;;;;;4980938;28;19932;-81
2023/01/23 09:21:01;;;;;;;;;;;;;;;;;;4992020;28;20291;-81
2023/01/23 09:44:19;;;;;;;;;;;;;;;;;;5054340;28;20307;-85
2023/01/23 09:47:22;;;;;;;;;;;;;;;;;;4985275;28;20021;-85
2023/01/23 09:50:24;;;;;;;;;;;;;;;;;;5042618;28;19961;-85
2023/01/23 09:53:12;;;;;;;;;;;;;;;;;;5073529;22;19931;-82
2023/01/23 09:55:38;;;;;;;;;;;;;;;;;;5058687;28;19931;-83
2023/01/23 09:58:04;;;;;;;;;;;;;;;;;;5062186;28;20385;-82
2023/01/23 10:00:30;;;;;;;;;;;;;;;;;;5078836;28;19922;-82
2023/01/23 10:02:56;;;;;;;;;;;;;;;;;;5052293;28;20449;-82
2023/01/23 10:05:22;;;;;;;;;;;;;;;;;;5076833;28;20151;-82
2023/01/23 10:07:48;;;;;;;;;;;;;;;;;;5059022;28;20018;-81
2023/01/23 10:10:14;;;;;;;;;;;;;;;;;;5076784;28;20483;-81
2023/01/23 10:12:40;;;;;;;;;;;;;;;;;;5056484;28;20378;-82
2023/01/23 10:15:06;;;;;;;;;;;;;;;;;;5048649;28;20343;-81
2023/01/23 10:17:32;;;;;;;;;;;;;;;;;;5058624;28;20223;-82
2023/01/23 10:19:58;;;;;;;;;;;;;;;;;;5056126;28;20318;-81
2023/01/23 10:22:25;;;;;;;;;;;;;;;;;;5055418;28;19920;-82
2023/01/23 10:24:50;;;;;;;;;;;;;;;;;;5054020;28;20570;-83
2023/01/23 10:27:17;;;;;;;;;;;;;;;;;;5072760;28;19916;-82
2023/01/23 10:29:46;;;;;;;;;;;;;;;;;;5056932;28;19916;-82
2023/01/23 10:32:12;;;;;;;;;;;;;;;;;;5055142;28;19928;-82
2023/01/23 10:34:38;;;;;;;;;;;;;;;;;;5065511;28;19916;-82
2023/01/23 10:37:04;;;;;;;;;;;;;;;;;;5065686;28;19925;-82
2023/01/23 10:39:30;;;;;;;;;;;;;;;;;;5063872;28;20274;-83
2023/01/23 10:41:56;;;;;;;;;;;;;;;;;;5085425;28;19924;-83
2023/01/23 10:44:22;;;;;;;;;;;;;;;;;;5057290;28;19923;-82
2023/01/23 10:46:48;;;;;;;;;;;;;;;;;;5062170;28;19973;-82
2023/01/23 10:49:14;;;;;;;;;;;;;;;;;;5068926;28;20640;-82
2023/01/23 10:51:40;;;;;;;;;;;;;;;;;;5054497;28;19999;-82
2023/01/23 10:54:06;;;;;;;;;;;;;;;;;;5071426;28;19951;-83
2023/01/23 10:56:31;;;;;;;;;;;;;;;;;;5070136;28;19924;-82
2023/01/23 10:58:57;;;;;;;;;;;;;;;;;;5066016;28;19935;-82
2023/01/23 11:01:23;;;;;;;;;;;;;;;;;;5070963;28;19916;-82
2023/01/23 11:03:49;;;;;;;;;;;;;;;;;;5056763;28;19931;-82
2023/01/23 11:06:15;;;;;;;;;;;;;;;;;;5083724;28;19921;-82
2023/01/23 11:08:41;;;;;;;;;;;;;;;;;;5049811;28;19916;-82
2023/01/23 11:11:07;;;;;;;;;;;;;;;;;;5059601;28;19961;-82
2023/01/23 11:13:33;;;;;;;;;;;;;;;;;;5048251;28;19916;-82
2023/01/23 11:15:59;;;;;;;;;;;;;;;;;;5087449;28;20595;-82
2023/01/23 11:18:25;;;;;;;;;;;;;;;;;;5041224;28;20589;-82
2023/01/23 11:20:51;;;;;;;;;;;;;;;;;;5062224;28;19923;-81
2023/01/23 11:23:16;;;;;;;;;;;;;;;;;;5071998;28;19922;-82
2023/01/23 11:25:42;;;;;;;;;;;;;;;;;;5061585;28;20497;-80
2023/01/23 11:28:08;;;;;;;;;;;;;;;;;;5064859;28;20378;-82
2023/01/23 11:30:35;;;;;;;;;;;;;;;;;;5037992;28;19920;-82
2023/01/23 11:33:01;;;;;;;;;;;;;;;;;;5045262;28;20210;-82
2023/01/23 11:35:26;;;;;;;;;;;;;;;;;;5063795;28;19919;-82
2023/01/23 11:37:52;;;;;;;;;;;;;;;;;;5056412;28;19924;-82
2023/01/23 11:40:18;;;;;;;;;;;;;;;;;;5074161;28;20490;-81
2023/01/23 11:42:44;;;;;;;;;;;;;;;;;;5047582;28;20005;-82
2023/01/23 11:45:10;;;;;;;;;;;;;;;;;;5070622;28;19970;-81
2023/01/23 11:47:36;;;;;;;;;;;;;;;;;;5040848;28;19994;-82
2023/01/23 11:50:03;;;;;;;;;;;;;;;;;;5033720;28;19916;-82
2023/01/23 11:52:29;;;;;;;;;;;;;;;;;;5060004;28;19973;-82
2023/01/23 11:54:54;;;;;;;;;;;;;;;;;;5062106;28;19924;-82
2023/01/23 11:57:20;;;;;;;;;;;;;;;;;;5058584;28;19920;-82
2023/01/23 11:59:46;;;;;;;;;;;;;;;;;;5074402;28;19916;-81
2023/01/23 12:02:12;;;;;;;;;;;;;;;;;;5073043;28;19920;-82
2023/01/23 12:04:38;;;;;;;;;;;;;;;;;;5065340;28;19916;-82
2023/01/23 12:07:04;;;;;;;;;;;;;;;;;;5061711;28;20486;-82
2023/01/23 12:09:30;;;;;;;;;;;;;;;;;;5062142;28;19916;-82
2023/01/23 12:11:56;;;;;;;;;;;;;;;;;;5052991;28;19916;-82
2023/01/23 12:14:22;;;;;;;;;;;;;;;;;;5051363;28;19982;-81
2023/01/23 12:16:48;;;;;;;;;;;;;;;;;;5057705;28;19920;-82
2023/01/23 12:19:14;;;;;;;;;;;;;;;;;;5039195;28;19924;-81
2023/01/23 12:21:40;;;;;;;;;;;;;;;;;;5062490;28;19994;-82
2023/01/23 12:24:06;;;;;;;;;;;;;;;;;;5057194;28;20015;-81
2023/01/23 12:26:31;;;;;;;;;;;;;;;;;;5066133;28;19930;-83
2023/01/23 12:28:57;;;;;;;;;;;;;;;;;;5050972;28;19931;-81
2023/01/23 12:31:24;;;;;;;;;;;;;;;;;;5046000;28;19924;-83
2023/01/23 12:33:50;;;;;;;;;;;;;;;;;;5049172;28;19924;-82
2023/01/23 12:36:15;;;;;;;;;;;;;;;;;;5060892;28;19921;-81
2023/01/23 12:38:41;;;;;;;;;;;;;;;;;;5059113;28;20379;-80
2023/01/23 12:41:07;;;;;;;;;;;;;;;;;;5051632;28;19923;-82
2023/01/23 12:43:33;;;;;;;;;;;;;;;;;;5050244;28;19947;-81
2023/01/23 12:45:59;;;;;;;;;;;;;;;;;;5063906;28;20539;-80
2023/01/23 12:48:27;;;;;;;;;;;;;;;;;;5081235;28;20610;-81
2023/01/23 12:50:53;;;;;;;;;;;;;;;;;;5067544;28;20268;-81
2023/01/23 12:53:20;;;;;;;;;;;;;;;;;;5067047;28;19919;-81
2023/01/23 12:55:46;;;;;;;;;;;;;;;;;;5048105;28;19920;-81
2023/01/23 12:58:11;;;;;;;;;;;;;;;;;;5053521;28;20010;-81
2023/01/23 13:00:38;;;;;;;;;;;;;;;;;;5061032;28;20425;-82
2023/01/23 13:03:04;;;;;;;;;;;;;;;;;;5055248;28;19924;-81
2023/01/23 13:05:29;;;;;;;;;;;;;;;;;;5059773;28;19924;-81
2023/01/23 13:07:55;;;;;;;;;;;;;;;;;;5077835;28;19916;-80
2023/01/23 13:10:21;;;;;;;;;;;;;;;;;;5058703;28;19916;-82
2023/01/23 13:12:47;;;;;;;;;;;;;;;;;;5064899;28;20333;-81
2023/01/23 13:15:13;;;;;;;;;;;;;;;;;;5044346;28;19920;-81
2023/01/23 13:17:39;;;;;;;;;;;;;;;;;;5058535;28;19948;-82
2023/01/23 13:22:50;;;;;;;;;;;;;;;;;;5055284;28;20566;-81
2023/01/23 13:25:16;;;;;;;;;;;;;;;;;;5053129;28;20384;-81
2023/01/23 13:27:46;;;;;;;;;;;;;;;;;;5060432;28;19915;-81
2023/01/23 13:30:11;;;;;;;;;;;;;;;;;;5055339;28;20031;-82
2023/01/23 13:32:37;;;;;;;;;;;;;;;;;;5060060;28;20002;-81
2023/01/23 13:35:03;;;;;;;;;;;;;;;;;;5060105;28;20018;-82
2023/01/23 13:37:29;;;;;;;;;;;;;;;;;;5074115;28;20036;-82
2023/01/23 13:39:55;;;;;;;;;;;;;;;;;;5072849;28;19934;-82
2023/01/23 13:42:21;;;;;;;;;;;;;;;;;;5047985;28;20325;-81
2023/01/23 13:44:47;;;;;;;;;;;;;;;;;;5047366;28;21544;-81
2023/01/23 13:49:58;;;;;;;;;;;;;;;;;;5078080;28;20330;-81
2023/01/23 13:57:53;;;;;;;;;;;;;;;;;;5061038;28;20007;-82
2023/01/23 14:00:19;;;;;;;;;;;;;;;;;;5035409;28;20015;-82
2023/01/23 14:05:30;;;;;;;;;;;;;;;;;;5055176;28;19967;-81
2023/01/23 14:07:56;;;;;;;;;;;;;;;;;;5074709;28;20013;-80
2023/01/23 14:10:22;;;;;;;;;;;;;;;;;;5035043;28;19923;-80
2023/01/23 14:12:48;;;;;;;;;;;;;;;;;;5065395;28;19927;-80
2023/01/23 14:17:58;;;;;;;;;;;;;;;;;;5062742;28;20060;-81
2023/01/23 14:20:24;;;;;;;;;;;;;;;;;;5057932;28;20015;-80
2023/01/23 14:22:50;;;;;;;;;;;;;;;;;;5048295;28;20352;-81
2023/01/23 14:25:16;;;;;;;;;;;;;;;;;;5068547;28;19920;-81
2023/01/23 14:27:42;;;;;;;;;;;;;;;;;;5042541;28;20020;-81
2023/01/23 14:30:08;;;;;;;;;;;;;;;;;;5076639;28;20352;-82
2023/01/23 14:32:34;;;;;;;;;;;;;;;;;;5040624;28;20294;-82
2023/01/23 14:35:00;;;;;;;;;;;;;;;;;;5063735;28;20310;-82
2023/01/23 14:37:26;;;;;;;;;;;;;;;;;;5063683;28;19920;-81
2023/01/23 14:39:52;;;;;;;;;;;;;;;;;;5041433;28;20974;-82
2023/01/23 14:42:18;;;;;;;;;;;;;;;;;;5043258;28;19916;-82
2023/01/23 14:44:44;;;;;;;;;;;;;;;;;;5058245;28;19982;-82
2023/01/23 14:47:10;;;;;;;;;;;;;;;;;;5065059;28;19924;-82
2023/01/23 14:49:36;;;;;;;;;;;;;;;;;;5062028;28;19917;-82
2023/01/23 14:52:02;;;;;;;;;;;;;;;;;;5056042;28;19924;-82
2023/01/23 14:54:28;;;;;;;;;;;;;;;;;;5057744;28;19924;-82
2023/01/23 14:56:55;;;;;;;;;;;;;;;;;;5065967;28;19924;-81
2023/01/23 14:59:21;;;;;;;;;;;;;;;;;;5073913;28;20056;-81
2023/01/23 15:01:47;;;;;;;;;;;;;;;;;;5039826;28;20010;-81
2023/01/23 15:04:12;;;;;;;;;;;;;;;;;;5072945;28;19947;-82
2023/01/23 15:06:38;;;;;;;;;;;;;;;;;;5066148;28;19920;-81
2023/01/23 15:09:04;;;;;;;;;;;;;;;;;;5075558;28;20528;-83
2023/01/23 15:11:30;;;;;;;;;;;;;;;;;;5040220;28;19963;-82
2023/01/23 15:14:00;;;;;;;;;;;;;;;;;;5035747;28;19950;-82
2023/01/23 15:16:27;;;;;;;;;;;;;;;;;;5074101;28;19928;-82
2023/01/23 15:18:53;;;;;;;;;;;;;;;;;;5027169;28;21598;-81
2023/01/23 15:21:22;;;;;;;;;;;;;;;;;;5053387;28;19924;-82
2023/01/23 15:23:48;;;;;;;;;;;;;;;;;;5073655;28;19932;-82
2023/01/23 15:26:13;;;;;;;;;;;;;;;;;;5040734;28;19924;-82
2023/01/23 15:28:39;;;;;;;;;;;;;;;;;;5049109;28;19926;-82
2023/01/23 15:31:05;;;;;;;;;;;;;;;;;;5057085;28;20287;-81
2023/01/23 15:33:33;;;;;;;;;;;;;;;;;;5058466;28;19955;-82
2023/01/23 15:35:59;;;;;;;;;;;;;;;;;;5037200;28;19924;-82
2023/01/23 15:38:25;;;;;;;;;;;;;;;;;;5043153;28;19916;-82
2023/01/23 15:40:51;;;;;;;;;;;;;;;;;;5070769;28;19978;-82
2023/01/23 15:43:17;;;;;;;;;;;;;;;;;;5031141;28;20065;-81
2023/01/23 15:45:43;;;;;;;;;;;;;;;;;;5023719;28;19916;-80
2023/01/23 15:48:09;;;;;;;;;;;;;;;;;;5053223;28;21199;-82
2023/01/23 15:50:35;;;;;;;;;;;;;;;;;;5077991;28;19917;-82
2023/01/23 16:00:58;;;;;;;;;;;;;;;;;;5052696;28;20112;-86
2023/01/23 16:17:24;;;;;;;;;;;;;;;;;;5074753;22;20014;-90
2023/01/23 16:26:15;;;;;;;;;;;;;;;;;;4918023;29;19995;-86
2023/01/23 16:28:44;;;;;;;;;;;;;;;;;;5077720;23;19928;-90
2023/01/23 16:31:10;;;;;;;;;;;;;;;;;;5051216;28;19924;-89
2023/01/23 16:33:36;;;;;;;;;;;;;;;;;;5056200;28;20027;-89
2023/01/23 16:36:14;;;;;;;;;;;;;;;;;;5057627;28;20005;-89
2023/01/23 16:38:42;;;;;;;;;;;;;;;;;;5049891;28;19997;-92
2023/01/23 16:41:22;;;;;;;;;;;;;;;;;;;;;
2023/01/23 16:43:55;;;;;;;;;;;;;;;;;;5033903;28;19916;-91
2023/01/23 16:46:21;;;;;;;;;;;;;;;;;;5060764;28;19924;-89
2023/01/23 16:48:53;;;;;;;;;;;;;;;;;;5055717;28;19920;-90
2023/01/23 16:54:20;;;;;;;;;;;;;;;;;;5060842;28;20062;-88
2023/01/23 16:56:56;;;;;;;;;;;;;;;;;;;;;
2023/01/23 16:59:48;;;;;;;;;;;;;;;;;;5057979;28;19930;-91
2023/01/23 17:02:23;;;;;;;;;;;;;;;;;;5023846;28;19925;-89
2023/01/23 17:05:07;;;;;;;;;;;;;;;;;;5040167;28;20866;-89
2023/01/23 17:07:33;;;;;;;;;;;;;;;;;;5042076;28;20106;-90
2023/01/23 17:10:03;;;;;;;;;;;;;;;;;;5022020;28;19982;-88
2023/01/23 17:15:42;;;;;;;;;;;;;;;;;;5053608;28;21192;-90
2023/01/23 17:18:44;;;;;;;;;;;;;;;;;;4991196;28;19920;-90
2023/01/23 17:21:13;;;;;;;;;;;;;;;;;;5037192;28;19971;-90
2023/01/23 17:23:45;;;;;;;;;;;;;;;;;;5037328;28;19940;-90
2023/01/23 17:29:39;;;;;;;;;;;;;;;;;;5057732;28;19962;-89
2023/01/23 17:35:09;;;;;;;;;;;;;;;;;;5040006;28;19920;-89
2023/01/23 17:37:51;;;;;;;;;;;;;;;;;;;;;
2023/01/23 17:40:47;;;;;;;;;;;;;;;;;;5024311;28;19920;-89
2023/01/23 17:43:28;;;;;;;;;;;;;;;;;;5039896;28;19927;-88
2023/01/23 17:45:54;;;;;;;;;;;;;;;;;;5024940;28;19931;-89
2023/01/23 17:48:23;;;;;;;;;;;;;;;;;;5020048;28;19916;-88
2023/01/23 17:50:49;;;;;;;;;;;;;;;;;;5037075;28;19931;-88
2023/01/23 17:53:15;;;;;;;;;;;;;;;;;;5056290;28;20031;-88
2023/01/23 17:55:46;;;;;;;;;;;;;;;;;;5047819;28;20402;-88
2023/01/23 17:58:12;;;;;;;;;;;;;;;;;;5035012;28;19920;-88
2023/01/23 18:00:54;;;;;;;;;;;;;;;;;;;;;
2023/01/23 18:03:41;;;;;;;;;;;;;;;;;;5051925;28;20370;-89
2023/01/23 18:06:07;;;;;;;;;;;;;;;;;;5022739;28;20437;-88
2023/01/23 18:11:51;;;;;;;;;;;;;;;;;;5044596;28;19964;-89
2023/01/23 18:20:16;;;;;;;;;;;;;;;;;;4974376;28;19976;-89
2023/01/23 18:25:56;;;;;;;;;;;;;;;;;;5037267;28;20226;-88
2023/01/23 18:31:23;;;;;;;;;;;;;;;;;;4957212;28;19917;-88
2023/01/23 18:33:59;;;;;;;;;;;;;;;;;;;;;
2023/01/23 18:36:28;;;;;;;;;;;;;;;;;;4967629;28;19985;-88
2023/01/23 18:39:00;;;;;;;;;;;;;;;;;;5030927;28;19935;-88
2023/01/23 18:41:27;;;;;;;;;;;;;;;;;;5036293;28;19975;-88
2023/01/23 18:44:09;;;;;;;;;;;;;;;;;;;;;
2023/01/23 18:46:44;;;;;;;;;;;;;;;;;;5037642;28;20383;-89
2023/01/23 18:49:41;;;;;;;;;;;;;;;;;;;;;
2023/01/23 18:52:16;;;;;;;;;;;;;;;;;;5017694;28;19925;-89